sensor_id;sensor_type;location;lat;lon;timestamp;P1;durP1;ratioP1;P2;durP2;ratioP2
39924;SDS011;25592;49.986;11.618;2024-01-30T00:00:46;53.37;;;37.83;;
39924;SDS011;25592;49.986;11.618;2024-01-30T00:03:32;53.87;;;39.57;;
39924;SDS011;25592;49.986;11.618;2024-01-30T00:06:18;53.70;;;39.27;;
39924;SDS011;25592;49.986;11.618;2024-01-30T00:09:05;53.77;;;38.63;;
39924;SDS011;25592;49.986;11.618;2024-01-30T00:11:51;54.23;;;39.37;;
39924;SDS011;25592;49.986;11.618;2024-01-30T00:14:36;53.83;;;38.57;;
39924;SDS011;25592;49.986;11.618;2024-01-30T00:17:22;53.80;;;37.93;;
39924;SDS011;25592;49.986;11.618;2024-01-30T00:20:07;54.07;;;38.40;;
39924;SDS011;25592;49.986;11.618;2024-01-30T00:22:54;53.43;;;37.77;;
39924;SDS011;25592;49.986;11.618;2024-01-30T00:25:40;53.67;;;37.93;;
39924;SDS011;25592;49.986;11.618;2024-01-30T00:28:25;54.53;;;38.53;;
39924;SDS011;25592;49.986;11.618;2024-01-30T00:31:10;53.90;;;38.33;;
39924;SDS011;25592;49.986;11.618;2024-01-30T00:33:57;53.90;;;38.07;;
39924;SDS011;25592;49.986;11.618;2024-01-30T00:36:42;54.57;;;39.03;;
39924;SDS011;25592;49.986;11.618;2024-01-30T00:39:28;53.23;;;37.30;;
39924;SDS011;25592;49.986;11.618;2024-01-30T00:42:13;54.47;;;38.53;;
39924;SDS011;25592;49.986;11.618;2024-01-30T00:44:59;55.00;;;40.83;;
39924;SDS011;25592;49.986;11.618;2024-01-30T00:47:45;54.10;;;38.37;;
39924;SDS011;25592;49.986;11.618;2024-01-30T00:50:30;54.07;;;38.00;;
39924;SDS011;25592;49.986;11.618;2024-01-30T00:53:16;53.83;;;37.93;;
39924;SDS011;25592;49.986;11.618;2024-01-30T00:56:01;54.40;;;38.07;;
39924;SDS011;25592;49.986;11.618;2024-01-30T00:58:47;54.03;;;37.97;;
39924;SDS011;25592;49.986;11.618;2024-01-30T01:01:32;54.63;;;38.00;;
39924;SDS011;25592;49.986;11.618;2024-01-30T01:04:18;55.50;;;38.77;;
39924;SDS011;25592;49.986;11.618;2024-01-30T01:07:03;55.77;;;39.07;;
39924;SDS011;25592;49.986;11.618;2024-01-30T01:09:49;55.83;;;38.23;;
39924;SDS011;25592;49.986;11.618;2024-01-30T01:12:35;56.30;;;39.10;;
39924;SDS011;25592;49.986;11.618;2024-01-30T01:15:20;55.87;;;38.80;;
39924;SDS011;25592;49.986;11.618;2024-01-30T01:18:06;55.77;;;38.17;;
39924;SDS011;25592;49.986;11.618;2024-01-30T01:20:51;56.50;;;38.80;;
39924;SDS011;25592;49.986;11.618;2024-01-30T01:23:37;56.13;;;38.70;;
39924;SDS011;25592;49.986;11.618;2024-01-30T01:26:22;56.20;;;39.17;;
39924;SDS011;25592;49.986;11.618;2024-01-30T01:29:07;56.37;;;39.00;;
39924;SDS011;25592;49.986;11.618;2024-01-30T01:31:56;56.67;;;39.30;;
39924;SDS011;25592;49.986;11.618;2024-01-30T01:34:42;56.23;;;38.73;;
39924;SDS011;25592;49.986;11.618;2024-01-30T01:37:27;56.30;;;38.90;;
39924;SDS011;25592;49.986;11.618;2024-01-30T01:40:13;55.57;;;38.57;;
39924;SDS011;25592;49.986;11.618;2024-01-30T01:42:58;56.23;;;38.83;;
39924;SDS011;25592;49.986;11.618;2024-01-30T01:45:43;56.50;;;39.87;;
39924;SDS011;25592;49.986;11.618;2024-01-30T01:48:29;55.57;;;38.50;;
39924;SDS011;25592;49.986;11.618;2024-01-30T01:51:15;56.40;;;39.20;;
39924;SDS011;25592;49.986;11.618;2024-01-30T01:54:02;56.37;;;39.27;;
39924;SDS011;25592;49.986;11.618;2024-01-30T01:56:48;55.30;;;38.47;;
39924;SDS011;25592;49.986;11.618;2024-01-30T01:59:34;55.53;;;38.47;;
39924;SDS011;25592;49.986;11.618;2024-01-30T02:02:20;55.90;;;39.40;;
39924;SDS011;25592;49.986;11.618;2024-01-30T02:05:08;55.77;;;38.60;;
39924;SDS011;25592;49.986;11.618;2024-01-30T02:07:54;56.17;;;38.73;;
39924;SDS011;25592;49.986;11.618;2024-01-30T02:10:39;56.17;;;39.20;;
39924;SDS011;25592;49.986;11.618;2024-01-30T02:13:25;56.43;;;39.57;;
39924;SDS011;25592;49.986;11.618;2024-01-30T02:16:10;55.93;;;38.83;;
39924;SDS011;25592;49.986;11.618;2024-01-30T02:18:56;55.63;;;38.47;;
39924;SDS011;25592;49.986;11.618;2024-01-30T02:21:41;56.07;;;38.93;;
39924;SDS011;25592;49.986;11.618;2024-01-30T02:24:27;55.70;;;38.40;;
39924;SDS011;25592;49.986;11.618;2024-01-30T02:27:12;55.53;;;38.07;;
39924;SDS011;25592;49.986;11.618;2024-01-30T02:29:58;55.40;;;38.47;;
39924;SDS011;25592;49.986;11.618;2024-01-30T02:32:43;56.13;;;39.37;;
39924;SDS011;25592;49.986;11.618;2024-01-30T02:35:28;55.50;;;38.50;;
39924;SDS011;25592;49.986;11.618;2024-01-30T02:38:15;54.87;;;38.47;;
39924;SDS011;25592;49.986;11.618;2024-01-30T02:41:01;55.93;;;38.93;;
39924;SDS011;25592;49.986;11.618;2024-01-30T02:43:46;56.27;;;39.37;;
39924;SDS011;25592;49.986;11.618;2024-01-30T02:46:32;56.43;;;39.20;;
39924;SDS011;25592;49.986;11.618;2024-01-30T02:49:17;55.53;;;39.07;;
39924;SDS011;25592;49.986;11.618;2024-01-30T02:52:03;55.20;;;37.97;;
39924;SDS011;25592;49.986;11.618;2024-01-30T02:54:48;56.83;;;41.30;;
39924;SDS011;25592;49.986;11.618;2024-01-30T02:57:34;55.47;;;38.53;;
39924;SDS011;25592;49.986;11.618;2024-01-30T03:00:19;55.93;;;39.00;;
39924;SDS011;25592;49.986;11.618;2024-01-30T03:03:05;55.13;;;38.13;;
39924;SDS011;25592;49.986;11.618;2024-01-30T03:05:50;55.47;;;38.67;;
39924;SDS011;25592;49.986;11.618;2024-01-30T03:08:36;55.63;;;39.13;;
39924;SDS011;25592;49.986;11.618;2024-01-30T03:11:22;55.73;;;39.00;;
39924;SDS011;25592;49.986;11.618;2024-01-30T03:14:07;55.47;;;38.90;;
39924;SDS011;25592;49.986;11.618;2024-01-30T03:16:55;56.03;;;39.40;;
39924;SDS011;25592;49.986;11.618;2024-01-30T03:19:41;55.60;;;38.63;;
39924;SDS011;25592;49.986;11.618;2024-01-30T03:22:26;55.53;;;38.60;;
39924;SDS011;25592;49.986;11.618;2024-01-30T03:25:11;55.60;;;38.50;;
39924;SDS011;25592;49.986;11.618;2024-01-30T03:27:57;55.80;;;39.27;;
39924;SDS011;25592;49.986;11.618;2024-01-30T03:30:42;55.27;;;38.57;;
39924;SDS011;25592;49.986;11.618;2024-01-30T03:33:28;55.60;;;37.93;;
39924;SDS011;25592;49.986;11.618;2024-01-30T03:36:15;56.00;;;38.90;;
39924;SDS011;25592;49.986;11.618;2024-01-30T03:39:01;56.53;;;38.60;;
39924;SDS011;25592;49.986;11.618;2024-01-30T03:41:47;55.90;;;38.43;;
39924;SDS011;25592;49.986;11.618;2024-01-30T03:44:32;56.13;;;38.97;;
39924;SDS011;25592;49.986;11.618;2024-01-30T03:47:18;56.40;;;38.87;;
39924;SDS011;25592;49.986;11.618;2024-01-30T03:50:03;56.07;;;38.43;;
39924;SDS011;25592;49.986;11.618;2024-01-30T03:52:50;57.03;;;39.30;;
39924;SDS011;25592;49.986;11.618;2024-01-30T03:55:35;56.50;;;38.70;;
39924;SDS011;25592;49.986;11.618;2024-01-30T03:58:21;56.17;;;38.50;;
39924;SDS011;25592;49.986;11.618;2024-01-30T04:01:06;56.87;;;38.50;;
39924;SDS011;25592;49.986;11.618;2024-01-30T04:03:52;56.13;;;38.30;;
39924;SDS011;25592;49.986;11.618;2024-01-30T04:06:38;56.83;;;39.23;;
39924;SDS011;25592;49.986;11.618;2024-01-30T04:09:23;56.43;;;38.73;;
39924;SDS011;25592;49.986;11.618;2024-01-30T04:12:09;56.37;;;38.33;;
39924;SDS011;25592;49.986;11.618;2024-01-30T04:14:54;57.57;;;39.90;;
39924;SDS011;25592;49.986;11.618;2024-01-30T04:17:40;57.17;;;39.33;;
39924;SDS011;25592;49.986;11.618;2024-01-30T04:20:26;57.03;;;38.80;;
39924;SDS011;25592;49.986;11.618;2024-01-30T04:23:11;56.23;;;38.47;;
39924;SDS011;25592;49.986;11.618;2024-01-30T04:25:57;56.57;;;38.60;;
39924;SDS011;25592;49.986;11.618;2024-01-30T04:28:44;57.03;;;38.97;;
39924;SDS011;25592;49.986;11.618;2024-01-30T04:31:29;57.07;;;39.13;;
39924;SDS011;25592;49.986;11.618;2024-01-30T04:34:15;55.57;;;38.23;;
39924;SDS011;25592;49.986;11.618;2024-01-30T04:37:00;56.37;;;38.87;;
39924;SDS011;25592;49.986;11.618;2024-01-30T04:39:46;57.63;;;40.33;;
39924;SDS011;25592;49.986;11.618;2024-01-30T04:42:31;56.47;;;38.23;;
39924;SDS011;25592;49.986;11.618;2024-01-30T04:45:17;56.47;;;38.97;;
39924;SDS011;25592;49.986;11.618;2024-01-30T04:48:02;56.63;;;38.47;;
39924;SDS011;25592;49.986;11.618;2024-01-30T04:50:48;56.90;;;38.87;;
39924;SDS011;25592;49.986;11.618;2024-01-30T04:53:33;56.83;;;38.43;;
39924;SDS011;25592;49.986;11.618;2024-01-30T04:56:19;57.57;;;38.60;;
39924;SDS011;25592;49.986;11.618;2024-01-30T04:59:04;58.37;;;39.33;;
39924;SDS011;25592;49.986;11.618;2024-01-30T05:01:50;57.40;;;39.17;;
39924;SDS011;25592;49.986;11.618;2024-01-30T05:04:35;57.07;;;39.07;;
39924;SDS011;25592;49.986;11.618;2024-01-30T05:07:20;56.33;;;39.20;;
39924;SDS011;25592;49.986;11.618;2024-01-30T05:10:06;57.23;;;39.00;;
39924;SDS011;25592;49.986;11.618;2024-01-30T05:12:53;61.00;;;40.10;;
39924;SDS011;25592;49.986;11.618;2024-01-30T05:15:39;57.63;;;39.53;;
39924;SDS011;25592;49.986;11.618;2024-01-30T05:18:24;57.53;;;39.30;;
39924;SDS011;25592;49.986;11.618;2024-01-30T05:21:10;56.90;;;38.83;;
39924;SDS011;25592;49.986;11.618;2024-01-30T05:23:55;58.40;;;39.97;;
39924;SDS011;25592;49.986;11.618;2024-01-30T05:26:40;58.13;;;39.33;;
39924;SDS011;25592;49.986;11.618;2024-01-30T05:29:26;57.50;;;38.70;;
39924;SDS011;25592;49.986;11.618;2024-01-30T05:32:12;57.73;;;38.57;;
39924;SDS011;25592;49.986;11.618;2024-01-30T05:34:57;58.67;;;40.33;;
39924;SDS011;25592;49.986;11.618;2024-01-30T05:37:43;58.67;;;39.93;;
39924;SDS011;25592;49.986;11.618;2024-01-30T05:40:28;58.00;;;39.30;;
39924;SDS011;25592;49.986;11.618;2024-01-30T05:43:14;58.43;;;39.53;;
39924;SDS011;25592;49.986;11.618;2024-01-30T05:45:59;59.00;;;39.73;;
39924;SDS011;25592;49.986;11.618;2024-01-30T05:48:45;58.93;;;39.83;;
39924;SDS011;25592;49.986;11.618;2024-01-30T05:51:31;59.03;;;39.80;;
39924;SDS011;25592;49.986;11.618;2024-01-30T05:54:16;58.60;;;39.40;;
39924;SDS011;25592;49.986;11.618;2024-01-30T05:57:02;57.77;;;38.10;;
39924;SDS011;25592;49.986;11.618;2024-01-30T05:59:48;58.23;;;39.07;;
39924;SDS011;25592;49.986;11.618;2024-01-30T06:02:33;59.13;;;40.33;;
39924;SDS011;25592;49.986;11.618;2024-01-30T06:05:19;58.17;;;38.93;;
39924;SDS011;25592;49.986;11.618;2024-01-30T06:08:04;59.20;;;40.37;;
39924;SDS011;25592;49.986;11.618;2024-01-30T06:10:50;58.80;;;39.60;;
39924;SDS011;25592;49.986;11.618;2024-01-30T06:13:35;58.23;;;39.27;;
39924;SDS011;25592;49.986;11.618;2024-01-30T06:16:21;59.60;;;41.47;;
39924;SDS011;25592;49.986;11.618;2024-01-30T06:19:07;59.70;;;40.80;;
39924;SDS011;25592;49.986;11.618;2024-01-30T06:21:52;58.43;;;38.97;;
39924;SDS011;25592;49.986;11.618;2024-01-30T06:24:38;60.27;;;40.10;;
39924;SDS011;25592;49.986;11.618;2024-01-30T06:27:23;58.50;;;38.67;;
39924;SDS011;25592;49.986;11.618;2024-01-30T06:30:09;59.00;;;39.57;;
39924;SDS011;25592;49.986;11.618;2024-01-30T06:32:55;58.60;;;39.13;;
39924;SDS011;25592;49.986;11.618;2024-01-30T06:35:41;58.50;;;39.27;;
39924;SDS011;25592;49.986;11.618;2024-01-30T06:38:29;58.37;;;39.07;;
39924;SDS011;25592;49.986;11.618;2024-01-30T06:41:14;58.60;;;38.73;;
39924;SDS011;25592;49.986;11.618;2024-01-30T06:44:01;58.23;;;38.50;;
39924;SDS011;25592;49.986;11.618;2024-01-30T06:46:48;58.73;;;39.67;;
39924;SDS011;25592;49.986;11.618;2024-01-30T06:49:34;58.87;;;39.20;;
39924;SDS011;25592;49.986;11.618;2024-01-30T06:52:21;59.10;;;39.73;;
39924;SDS011;25592;49.986;11.618;2024-01-30T06:55:06;58.03;;;39.07;;
39924;SDS011;25592;49.986;11.618;2024-01-30T06:57:51;58.73;;;39.73;;
39924;SDS011;25592;49.986;11.618;2024-01-30T07:00:37;57.57;;;38.83;;
39924;SDS011;25592;49.986;11.618;2024-01-30T07:03:22;56.50;;;37.87;;
39924;SDS011;25592;49.986;11.618;2024-01-30T07:06:08;58.00;;;39.27;;
39924;SDS011;25592;49.986;11.618;2024-01-30T07:08:53;57.53;;;38.80;;
39924;SDS011;25592;49.986;11.618;2024-01-30T07:11:39;58.63;;;39.73;;
39924;SDS011;25592;49.986;11.618;2024-01-30T07:14:25;59.30;;;40.00;;
39924;SDS011;25592;49.986;11.618;2024-01-30T07:17:10;58.50;;;39.40;;
39924;SDS011;25592;49.986;11.618;2024-01-30T07:19:55;59.03;;;40.17;;
39924;SDS011;25592;49.986;11.618;2024-01-30T07:22:41;58.33;;;39.10;;
39924;SDS011;25592;49.986;11.618;2024-01-30T07:25:26;58.77;;;39.77;;
39924;SDS011;25592;49.986;11.618;2024-01-30T07:28:12;59.53;;;40.03;;
39924;SDS011;25592;49.986;11.618;2024-01-30T07:30:58;59.77;;;41.03;;
39924;SDS011;25592;49.986;11.618;2024-01-30T07:33:44;59.90;;;40.97;;
39924;SDS011;25592;49.986;11.618;2024-01-30T07:36:29;59.47;;;41.00;;
39924;SDS011;25592;49.986;11.618;2024-01-30T07:39:14;58.93;;;39.93;;
39924;SDS011;25592;49.986;11.618;2024-01-30T07:42:00;58.37;;;39.53;;
39924;SDS011;25592;49.986;11.618;2024-01-30T07:44:47;58.23;;;39.37;;
39924;SDS011;25592;49.986;11.618;2024-01-30T07:47:33;57.63;;;39.10;;
39924;SDS011;25592;49.986;11.618;2024-01-30T07:50:18;58.37;;;40.00;;
39924;SDS011;25592;49.986;11.618;2024-01-30T07:53:04;57.03;;;38.23;;
39924;SDS011;25592;49.986;11.618;2024-01-30T07:55:49;57.17;;;38.90;;
39924;SDS011;25592;49.986;11.618;2024-01-30T07:58:35;57.23;;;38.90;;
39924;SDS011;25592;49.986;11.618;2024-01-30T08:01:20;57.17;;;39.10;;
39924;SDS011;25592;49.986;11.618;2024-01-30T08:04:06;58.73;;;40.30;;
39924;SDS011;25592;49.986;11.618;2024-01-30T08:06:51;57.37;;;38.87;;
39924;SDS011;25592;49.986;11.618;2024-01-30T08:09:37;57.70;;;39.40;;
39924;SDS011;25592;49.986;11.618;2024-01-30T08:12:23;58.17;;;39.30;;
39924;SDS011;25592;49.986;11.618;2024-01-30T08:15:08;58.00;;;39.07;;
39924;SDS011;25592;49.986;11.618;2024-01-30T08:17:54;57.37;;;39.33;;
39924;SDS011;25592;49.986;11.618;2024-01-30T08:20:42;57.67;;;39.27;;
39924;SDS011;25592;49.986;11.618;2024-01-30T08:23:28;58.03;;;39.37;;
39924;SDS011;25592;49.986;11.618;2024-01-30T08:26:13;57.80;;;39.17;;
39924;SDS011;25592;49.986;11.618;2024-01-30T08:28:59;58.23;;;39.40;;
39924;SDS011;25592;49.986;11.618;2024-01-30T08:31:45;58.13;;;40.10;;
39924;SDS011;25592;49.986;11.618;2024-01-30T08:34:31;58.07;;;39.60;;
39924;SDS011;25592;49.986;11.618;2024-01-30T08:37:16;56.97;;;39.00;;
39924;SDS011;25592;49.986;11.618;2024-01-30T08:40:02;58.33;;;40.67;;
39924;SDS011;25592;49.986;11.618;2024-01-30T08:42:49;58.13;;;39.83;;
39924;SDS011;25592;49.986;11.618;2024-01-30T08:45:35;58.20;;;39.17;;
39924;SDS011;25592;49.986;11.618;2024-01-30T08:48:20;58.37;;;39.93;;
39924;SDS011;25592;49.986;11.618;2024-01-30T08:51:08;58.63;;;40.03;;
39924;SDS011;25592;49.986;11.618;2024-01-30T08:53:53;58.23;;;39.93;;
39924;SDS011;25592;49.986;11.618;2024-01-30T08:56:39;59.30;;;41.47;;
39924;SDS011;25592;49.986;11.618;2024-01-30T08:59:24;58.77;;;40.43;;
39924;SDS011;25592;49.986;11.618;2024-01-30T09:02:09;58.77;;;40.50;;
39924;SDS011;25592;49.986;11.618;2024-01-30T09:04:57;59.73;;;42.67;;
39924;SDS011;25592;49.986;11.618;2024-01-30T09:07:42;58.60;;;40.23;;
39924;SDS011;25592;49.986;11.618;2024-01-30T09:10:28;59.27;;;40.17;;
39924;SDS011;25592;49.986;11.618;2024-01-30T09:13:14;58.87;;;39.70;;
39924;SDS011;25592;49.986;11.618;2024-01-30T09:16:00;59.07;;;39.73;;
39924;SDS011;25592;49.986;11.618;2024-01-30T09:18:45;59.80;;;40.73;;
39924;SDS011;25592;49.986;11.618;2024-01-30T09:21:31;60.13;;;40.60;;
39924;SDS011;25592;49.986;11.618;2024-01-30T09:24:16;59.67;;;40.97;;
39924;SDS011;25592;49.986;11.618;2024-01-30T09:27:01;58.67;;;39.87;;
39924;SDS011;25592;49.986;11.618;2024-01-30T09:29:47;59.87;;;41.47;;
39924;SDS011;25592;49.986;11.618;2024-01-30T09:32:33;59.13;;;40.70;;
39924;SDS011;25592;49.986;11.618;2024-01-30T09:35:18;59.63;;;41.43;;
39924;SDS011;25592;49.986;11.618;2024-01-30T09:38:04;59.30;;;41.17;;
39924;SDS011;25592;49.986;11.618;2024-01-30T09:40:53;59.17;;;41.07;;
39924;SDS011;25592;49.986;11.618;2024-01-30T09:46:30;60.23;;;40.47;;
39924;SDS011;25592;49.986;11.618;2024-01-30T09:49:17;56.13;;;39.27;;
39924;SDS011;25592;49.986;11.618;2024-01-30T09:52:05;57.03;;;39.80;;
39924;SDS011;25592;49.986;11.618;2024-01-30T09:54:51;58.23;;;41.90;;
39924;SDS011;25592;49.986;11.618;2024-01-30T09:57:38;57.57;;;39.77;;
39924;SDS011;25592;49.986;11.618;2024-01-30T10:00:24;57.80;;;40.13;;
39924;SDS011;25592;49.986;11.618;2024-01-30T10:03:12;58.43;;;40.33;;
39924;SDS011;25592;49.986;11.618;2024-01-30T10:06:00;58.03;;;39.67;;
39924;SDS011;25592;49.986;11.618;2024-01-30T10:08:46;59.10;;;40.63;;
39924;SDS011;25592;49.986;11.618;2024-01-30T10:11:31;58.97;;;40.90;;
39924;SDS011;25592;49.986;11.618;2024-01-30T10:14:17;59.37;;;40.30;;
39924;SDS011;25592;49.986;11.618;2024-01-30T10:17:03;59.43;;;40.93;;
39924;SDS011;25592;49.986;11.618;2024-01-30T10:19:58;60.67;;;41.63;;
39924;SDS011;25592;49.986;11.618;2024-01-30T10:22:44;60.37;;;42.10;;
39924;SDS011;25592;49.986;11.618;2024-01-30T10:25:31;59.30;;;40.77;;
39924;SDS011;25592;49.986;11.618;2024-01-30T10:28:16;59.00;;;40.03;;
39924;SDS011;25592;49.986;11.618;2024-01-30T10:31:02;60.07;;;42.07;;
39924;SDS011;25592;49.986;11.618;2024-01-30T10:33:51;59.97;;;41.43;;
39924;SDS011;25592;49.986;11.618;2024-01-30T10:36:46;59.97;;;41.07;;
39924;SDS011;25592;49.986;11.618;2024-01-30T10:39:36;59.00;;;40.13;;
39924;SDS011;25592;49.986;11.618;2024-01-30T10:42:25;59.87;;;41.23;;
39924;SDS011;25592;49.986;11.618;2024-01-30T10:45:12;59.77;;;41.03;;
39924;SDS011;25592;49.986;11.618;2024-01-30T10:48:00;60.00;;;41.23;;
39924;SDS011;25592;49.986;11.618;2024-01-30T10:50:48;59.87;;;41.17;;
39924;SDS011;25592;49.986;11.618;2024-01-30T10:53:45;60.73;;;41.70;;
39924;SDS011;25592;49.986;11.618;2024-01-30T10:56:32;59.93;;;41.67;;
39924;SDS011;25592;49.986;11.618;2024-01-30T10:59:18;60.50;;;41.20;;
39924;SDS011;25592;49.986;11.618;2024-01-30T11:02:04;60.07;;;41.03;;
39924;SDS011;25592;49.986;11.618;2024-01-30T11:04:54;61.23;;;43.63;;
39924;SDS011;25592;49.986;11.618;2024-01-30T11:07:44;61.93;;;42.07;;
39924;SDS011;25592;49.986;11.618;2024-01-30T11:10:29;62.80;;;43.73;;
39924;SDS011;25592;49.986;11.618;2024-01-30T11:13:18;62.77;;;43.50;;
39924;SDS011;25592;49.986;11.618;2024-01-30T11:16:04;64.20;;;44.57;;
39924;SDS011;25592;49.986;11.618;2024-01-30T11:18:50;64.00;;;44.17;;
39924;SDS011;25592;49.986;11.618;2024-01-30T11:21:42;63.20;;;43.43;;
39924;SDS011;25592;49.986;11.618;2024-01-30T11:24:27;62.83;;;42.83;;
39924;SDS011;25592;49.986;11.618;2024-01-30T11:27:13;62.70;;;43.00;;
39924;SDS011;25592;49.986;11.618;2024-01-30T11:30:03;63.13;;;43.33;;
39924;SDS011;25592;49.986;11.618;2024-01-30T11:33:05;63.63;;;43.67;;
39924;SDS011;25592;49.986;11.618;2024-01-30T11:35:58;63.57;;;43.80;;
39924;SDS011;25592;49.986;11.618;2024-01-30T11:38:44;63.23;;;43.53;;
39924;SDS011;25592;49.986;11.618;2024-01-30T11:41:31;62.93;;;43.03;;
39924;SDS011;25592;49.986;11.618;2024-01-30T11:44:19;63.00;;;42.93;;
39924;SDS011;25592;49.986;11.618;2024-01-30T11:47:05;64.03;;;44.73;;
39924;SDS011;25592;49.986;11.618;2024-01-30T11:49:51;62.47;;;42.63;;
39924;SDS011;25592;49.986;11.618;2024-01-30T11:52:36;62.90;;;42.90;;
39924;SDS011;25592;49.986;11.618;2024-01-30T11:55:23;63.17;;;43.47;;
39924;SDS011;25592;49.986;11.618;2024-01-30T11:58:09;63.43;;;43.67;;
39924;SDS011;25592;49.986;11.618;2024-01-30T12:00:55;65.17;;;44.77;;
39924;SDS011;25592;49.986;11.618;2024-01-30T12:03:41;64.77;;;44.07;;
39924;SDS011;25592;49.986;11.618;2024-01-30T12:06:27;65.33;;;45.27;;
39924;SDS011;25592;49.986;11.618;2024-01-30T12:09:12;64.67;;;43.73;;
39924;SDS011;25592;49.986;11.618;2024-01-30T12:11:58;65.10;;;44.77;;
39924;SDS011;25592;49.986;11.618;2024-01-30T12:14:44;65.83;;;45.03;;
39924;SDS011;25592;49.986;11.618;2024-01-30T12:17:31;65.00;;;44.47;;
39924;SDS011;25592;49.986;11.618;2024-01-30T12:20:18;64.93;;;44.47;;
39924;SDS011;25592;49.986;11.618;2024-01-30T12:23:05;65.27;;;45.57;;
39924;SDS011;25592;49.986;11.618;2024-01-30T12:25:50;66.37;;;45.63;;
39924;SDS011;25592;49.986;11.618;2024-01-30T12:28:36;66.37;;;46.20;;
39924;SDS011;25592;49.986;11.618;2024-01-30T12:31:26;66.60;;;44.67;;
39924;SDS011;25592;49.986;11.618;2024-01-30T12:34:16;67.50;;;46.03;;
39924;SDS011;25592;49.986;11.618;2024-01-30T12:37:02;67.63;;;46.63;;
39924;SDS011;25592;49.986;11.618;2024-01-30T12:39:49;67.27;;;46.70;;
39924;SDS011;25592;49.986;11.618;2024-01-30T12:42:35;67.97;;;46.30;;
39924;SDS011;25592;49.986;11.618;2024-01-30T12:45:20;67.30;;;45.17;;
39924;SDS011;25592;49.986;11.618;2024-01-30T12:48:08;67.60;;;46.47;;
39924;SDS011;25592;49.986;11.618;2024-01-30T12:50:54;67.73;;;45.83;;
39924;SDS011;25592;49.986;11.618;2024-01-30T12:53:39;68.37;;;46.17;;
39924;SDS011;25592;49.986;11.618;2024-01-30T12:56:25;68.77;;;46.23;;
39924;SDS011;25592;49.986;11.618;2024-01-30T12:59:10;68.40;;;46.27;;
39924;SDS011;25592;49.986;11.618;2024-01-30T13:01:55;69.97;;;47.30;;
39924;SDS011;25592;49.986;11.618;2024-01-30T13:04:42;70.13;;;47.90;;
39924;SDS011;25592;49.986;11.618;2024-01-30T13:07:32;68.47;;;45.53;;
39924;SDS011;25592;49.986;11.618;2024-01-30T13:10:18;68.77;;;47.90;;
39924;SDS011;25592;49.986;11.618;2024-01-30T13:13:03;68.00;;;46.23;;
39924;SDS011;25592;49.986;11.618;2024-01-30T13:15:53;67.63;;;46.53;;
39924;SDS011;25592;49.986;11.618;2024-01-30T13:18:39;67.07;;;46.07;;
39924;SDS011;25592;49.986;11.618;2024-01-30T13:21:24;67.30;;;45.33;;
39924;SDS011;25592;49.986;11.618;2024-01-30T13:24:10;67.43;;;46.37;;
39924;SDS011;25592;49.986;11.618;2024-01-30T13:26:55;69.33;;;47.57;;
39924;SDS011;25592;49.986;11.618;2024-01-30T13:29:41;70.87;;;47.83;;
39924;SDS011;25592;49.986;11.618;2024-01-30T13:32:26;68.27;;;46.57;;
39924;SDS011;25592;49.986;11.618;2024-01-30T13:35:12;69.93;;;47.50;;
39924;SDS011;25592;49.986;11.618;2024-01-30T13:37:58;71.40;;;48.53;;
39924;SDS011;25592;49.986;11.618;2024-01-30T13:40:43;71.33;;;47.27;;
39924;SDS011;25592;49.986;11.618;2024-01-30T13:43:29;71.13;;;47.40;;
39924;SDS011;25592;49.986;11.618;2024-01-30T13:46:14;71.63;;;47.20;;
39924;SDS011;25592;49.986;11.618;2024-01-30T13:49:00;72.60;;;47.10;;
39924;SDS011;25592;49.986;11.618;2024-01-30T13:51:46;70.00;;;46.63;;
39924;SDS011;25592;49.986;11.618;2024-01-30T13:54:31;71.17;;;48.50;;
39924;SDS011;25592;49.986;11.618;2024-01-30T13:57:17;68.93;;;46.40;;
39924;SDS011;25592;49.986;11.618;2024-01-30T14:00:03;69.50;;;46.97;;
39924;SDS011;25592;49.986;11.618;2024-01-30T14:02:52;70.73;;;46.63;;
39924;SDS011;25592;49.986;11.618;2024-01-30T14:05:39;69.73;;;45.93;;
39924;SDS011;25592;49.986;11.618;2024-01-30T14:08:25;68.93;;;46.13;;
39924;SDS011;25592;49.986;11.618;2024-01-30T14:11:13;69.70;;;47.33;;
39924;SDS011;25592;49.986;11.618;2024-01-30T14:13:58;69.47;;;46.73;;
39924;SDS011;25592;49.986;11.618;2024-01-30T14:16:44;69.17;;;45.67;;
39924;SDS011;25592;49.986;11.618;2024-01-30T14:19:30;68.50;;;46.17;;
39924;SDS011;25592;49.986;11.618;2024-01-30T14:22:15;68.33;;;45.80;;
39924;SDS011;25592;49.986;11.618;2024-01-30T14:25:01;69.83;;;48.47;;
39924;SDS011;25592;49.986;11.618;2024-01-30T14:27:48;68.90;;;46.07;;
39924;SDS011;25592;49.986;11.618;2024-01-30T14:30:35;68.13;;;45.93;;
39924;SDS011;25592;49.986;11.618;2024-01-30T14:33:20;68.03;;;45.47;;
39924;SDS011;25592;49.986;11.618;2024-01-30T14:36:06;69.23;;;46.63;;
39924;SDS011;25592;49.986;11.618;2024-01-30T14:38:53;68.47;;;45.53;;
39924;SDS011;25592;49.986;11.618;2024-01-30T14:41:38;67.87;;;45.73;;
39924;SDS011;25592;49.986;11.618;2024-01-30T14:44:24;69.63;;;46.47;;
39924;SDS011;25592;49.986;11.618;2024-01-30T14:47:09;71.23;;;47.50;;
39924;SDS011;25592;49.986;11.618;2024-01-30T14:49:55;69.60;;;46.07;;
39924;SDS011;25592;49.986;11.618;2024-01-30T14:52:40;70.63;;;46.70;;
39924;SDS011;25592;49.986;11.618;2024-01-30T14:55:26;70.90;;;47.80;;
39924;SDS011;25592;49.986;11.618;2024-01-30T14:58:11;69.87;;;45.53;;
39924;SDS011;25592;49.986;11.618;2024-01-30T15:00:57;70.50;;;45.80;;
39924;SDS011;25592;49.986;11.618;2024-01-30T15:03:42;71.57;;;48.07;;
39924;SDS011;25592;49.986;11.618;2024-01-30T15:06:28;71.00;;;47.83;;
39924;SDS011;25592;49.986;11.618;2024-01-30T15:09:14;70.30;;;46.63;;
39924;SDS011;25592;49.986;11.618;2024-01-30T15:12:00;70.77;;;46.60;;
39924;SDS011;25592;49.986;11.618;2024-01-30T15:14:45;69.80;;;46.00;;
39924;SDS011;25592;49.986;11.618;2024-01-30T15:17:35;71.17;;;46.33;;
39924;SDS011;25592;49.986;11.618;2024-01-30T15:20:20;72.60;;;47.87;;
39924;SDS011;25592;49.986;11.618;2024-01-30T15:23:06;72.10;;;47.60;;
39924;SDS011;25592;49.986;11.618;2024-01-30T15:25:52;70.03;;;46.30;;
39924;SDS011;25592;49.986;11.618;2024-01-30T15:28:38;70.60;;;46.40;;
39924;SDS011;25592;49.986;11.618;2024-01-30T15:31:24;70.10;;;46.57;;
39924;SDS011;25592;49.986;11.618;2024-01-30T15:34:09;71.13;;;47.70;;
39924;SDS011;25592;49.986;11.618;2024-01-30T15:36:55;70.47;;;47.23;;
39924;SDS011;25592;49.986;11.618;2024-01-30T15:39:40;72.27;;;47.70;;
39924;SDS011;25592;49.986;11.618;2024-01-30T15:42:26;71.73;;;47.60;;
39924;SDS011;25592;49.986;11.618;2024-01-30T15:45:11;71.47;;;47.30;;
39924;SDS011;25592;49.986;11.618;2024-01-30T15:47:57;70.07;;;46.10;;
39924;SDS011;25592;49.986;11.618;2024-01-30T15:50:43;69.50;;;46.20;;
39924;SDS011;25592;49.986;11.618;2024-01-30T15:53:28;70.70;;;46.93;;
39924;SDS011;25592;49.986;11.618;2024-01-30T15:56:14;70.50;;;46.53;;
39924;SDS011;25592;49.986;11.618;2024-01-30T15:58:59;71.30;;;47.30;;